Maysville, Missouri
Current Conditions -  °F | °C
As of 3:13 PM on Sunday 23 Nov 2014 (Local Time) from KSTJ Reporting Station
Overcast Overcast  
Wind Chill: 38°   Ceiling: 1900
Heat Index: 47°   Visibility: 10mi
Dew Point: 43°   Wind: 26mph
Humidity: 86%   Direction: 350°N
Pressure: 29.38"   Gusts: 32mph
Location:  39.89°N, 94.36°W
Report Text: KSTJ 232113Z 35023G28KT 10SM OVC019 08/06 A2938 RMK AO2 PK WND 35030/2058 T00830061
Loading
Personal Weather Stations






























Interactive Weather Map New forecast layout! Learn more

10-Day Weather Forecast

Advertisements
Track Severe Weather on mobile